Time;durP1;ratioP1;P1;durP2;ratioP2;P2;SDS_P1;SDS_P2;PMS_P1;PMS_P2;Temp;Humidity;BMP_temperature;BMP_pressure;BME280_temperature;BME280_humidity;BME280_pressure;Samples;Min_cycle;Max_cycle;Signal;HPM_P1;HPM_P2
2022/09/04 00:00:02;;;;;;;2.57;1.30;;;14.60;98.70;;;;;;5027185;28;20523;-62
2022/09/04 00:02:57;;;;;;;2.53;1.53;;;14.60;98.30;;;;;;5013155;28;20521;-63
2022/09/04 00:05:31;;;;;;;2.03;1.27;;;14.50;98.60;;;;;;5015220;28;20951;-62
2022/09/04 00:08:21;;;;;;;3.53;2.10;;;14.50;98.70;;;;;;5033697;28;20480;-63
2022/09/04 00:10:55;;;;;;;3.40;2.90;;;14.50;99.40;;;;;;5026644;28;20453;-63
2022/09/04 00:13:26;;;;;;;6.43;3.40;;;14.50;98.90;;;;;;5013090;28;20481;-63
2022/09/04 00:15:59;;;;;;;3.60;2.67;;;14.50;98.90;;;;;;5018163;28;20938;-63
2022/09/04 00:18:35;;;;;;;2.63;1.97;;;14.50;99.10;;;;;;5033220;28;20518;-63
2022/09/04 00:21:07;;;;;;;2.97;2.07;;;14.50;99.00;;;;;;5026050;28;20497;-62
2022/09/04 00:23:41;;;;;;;3.60;2.30;;;14.50;98.90;;;;;;5013636;28;20438;-62
2022/09/04 00:26:17;;;;;;;5.27;1.90;;;14.60;99.10;;;;;;5018144;28;20466;-63
2022/09/04 00:28:48;;;;;;;2.40;1.70;;;14.60;99.10;;;;;;5033401;28;20437;-64
2022/09/04 00:31:24;;;;;;;2.30;1.60;;;14.50;98.20;;;;;;5029283;28;20476;-65
2022/09/04 00:34:03;;;;;;;3.37;1.60;;;14.50;97.90;;;;;;5033211;28;20444;-62
2022/09/04 00:36:31;;;;;;;2.47;1.73;;;14.40;98.20;;;;;;5023407;28;20442;-63
2022/09/04 00:39:03;;;;;;;2.60;1.63;;;14.40;98.20;;;;;;5012984;28;20847;-63
2022/09/04 00:41:33;;;;;;;3.20;2.00;;;14.30;98.10;;;;;;5020100;28;20437;-62
2022/09/04 00:44:24;;;;;;;3.80;2.83;;;14.20;98.10;;;;;;5032986;28;20788;-62
2022/09/04 00:47:25;;;;;;;3.30;2.20;;;14.20;98.30;;;;;;5021320;28;20957;-63
2022/09/04 00:50:10;;;;;;;2.73;1.50;;;14.20;98.80;;;;;;4991035;28;20426;-63
2022/09/04 00:52:54;;;;;;;2.07;1.40;;;14.20;99.30;;;;;;5028007;28;20852;-62
2022/09/04 00:55:38;;;;;;;2.77;1.57;;;14.20;99.90;;;;;;5032801;28;20433;-63
2022/09/04 00:58:15;;;;;;;2.90;1.93;;;14.20;99.90;;;;;;5011643;28;20541;-63
2022/09/04 01:00:46;;;;;;;5.50;2.17;;;14.20;99.90;;;;;;5013005;28;20447;-63
2022/09/04 01:03:29;;;;;;;3.27;2.20;;;14.20;99.90;;;;;;5012280;28;20454;-63
2022/09/04 01:06:18;;;;;;;2.90;1.83;;;14.20;99.90;;;;;;5012490;28;20471;-64
2022/09/04 01:09:24;;;;;;;2.63;1.80;;;14.20;99.70;;;;;;5032735;28;21013;-63
2022/09/04 01:12:02;;;;;;;3.53;2.13;;;14.20;99.90;;;;;;5013591;28;20446;-62
2022/09/04 01:14:40;;;;;;;3.13;2.03;;;14.30;99.90;;;;;;5012871;28;20477;-62
2022/09/04 01:17:14;;;;;;;2.57;1.63;;;14.30;99.90;;;;;;5020462;28;20433;-62
2022/09/04 01:19:50;;;;;;;3.10;2.13;;;14.40;99.90;;;;;;5032518;28;20453;-62
2022/09/04 01:22:34;;;;;;;2.47;1.77;;;14.40;99.90;;;;;;5021746;28;20520;-63
2022/09/04 01:25:15;;;;;;;2.70;2.13;;;14.40;99.70;;;;;;5012186;28;20814;-63
2022/09/04 01:27:53;;;;;;;4.33;1.90;;;14.40;99.40;;;;;;5012770;28;20517;-63
2022/09/04 01:30:21;;;;;;;3.60;2.10;;;14.20;98.90;;;;;;5018685;28;20448;-63
2022/09/04 01:32:59;;;;;;;3.20;1.63;;;14.20;99.20;;;;;;5032411;28;20462;-65
2022/09/04 01:35:33;;;;;;;2.77;1.80;;;14.20;99.20;;;;;;5023875;28;20449;-62
2022/09/04 01:38:09;;;;;;;2.80;1.90;;;14.20;99.30;;;;;;5012654;28;20439;-62
2022/09/04 01:40:43;;;;;;;3.33;1.30;;;14.20;99.40;;;;;;5020060;28;20874;-62
2022/09/04 01:43:14;;;;;;;3.93;1.30;;;14.30;99.60;;;;;;5032454;28;20849;-62
2022/09/04 01:46:07;;;;;;;2.50;1.30;;;14.30;99.50;;;;;;5022685;28;20796;-62
2022/09/04 01:48:43;;;;;;;2.73;2.00;;;14.30;99.50;;;;;;5012265;28;20482;-62
2022/09/04 01:51:20;;;;;;;2.90;1.93;;;14.30;99.10;;;;;;5018991;28;20439;-63
2022/09/04 01:53:57;;;;;;;3.13;2.03;;;14.20;99.30;;;;;;5032001;28;20473;-63
2022/09/04 01:56:32;;;;;;;2.67;1.70;;;14.20;99.70;;;;;;5032211;28;20441;-62
2022/09/04 01:59:07;;;;;;;6.10;1.67;;;14.20;99.90;;;;;;5030802;28;20934;-63
2022/09/04 02:01:43;;;;;;;2.33;1.83;;;14.20;99.90;;;;;;5033516;28;20927;-63
2022/09/04 02:04:17;;;;;;;3.60;2.60;;;14.20;99.90;;;;;;5020516;28;20469;-63
2022/09/04 02:06:57;;;;;;;3.17;2.20;;;14.10;99.90;;;;;;5016273;28;20525;-62
2022/09/04 02:09:36;;;;;;;3.40;1.50;;;14.20;99.90;;;;;;5030788;28;20935;-63
2022/09/04 02:12:11;;;;;;;4.00;1.33;;;14.30;99.90;;;;;;5036386;28;20445;-62
2022/09/04 02:14:43;;;;;;;2.80;1.50;;;14.30;99.90;;;;;;5017387;28;20452;-63
2022/09/04 02:17:17;;;;;;;3.17;2.07;;;14.40;99.90;;;;;;5032436;28;20521;-63
2022/09/04 02:20:08;;;;;;;2.70;1.83;;;14.40;99.90;;;;;;5035887;28;20437;-62
2022/09/04 02:22:43;;;;;;;2.53;1.50;;;14.50;99.90;;;;;;5015723;28;20438;-63
2022/09/04 02:25:20;;;;;;;3.97;2.27;;;14.50;99.90;;;;;;5016283;28;20937;-64
2022/09/04 02:27:59;;;;;;;3.87;2.40;;;14.50;99.90;;;;;;5015651;28;20641;-63
2022/09/04 02:30:34;;;;;;;3.37;2.27;;;14.50;99.90;;;;;;5012303;28;20469;-64
2022/09/04 02:33:10;;;;;;;3.50;2.10;;;14.40;99.90;;;;;;5016028;28;20877;-63
2022/09/04 02:35:43;;;;;;;4.07;2.43;;;14.40;99.90;;;;;;5014639;28;20466;-63
2022/09/04 02:38:18;;;;;;;3.60;2.07;;;14.40;99.90;;;;;;5016035;28;20442;-62
2022/09/04 02:40:51;;;;;;;3.23;2.00;;;14.40;99.90;;;;;;5014348;28;20481;-62
2022/09/04 02:43:41;;;;;;;4.63;2.20;;;14.40;99.90;;;;;;5015808;28;20473;-63
2022/09/04 02:46:17;;;;;;;3.40;2.00;;;14.50;99.90;;;;;;5014683;28;20442;-63
2022/09/04 02:48:58;;;;;;;2.90;1.83;;;14.50;99.90;;;;;;5015625;28;20517;-63
2022/09/04 02:51:44;;;;;;;2.40;1.70;;;14.50;99.90;;;;;;5014166;28;20863;-63
2022/09/04 02:54:17;;;;;;;3.67;1.70;;;14.50;99.90;;;;;;5014678;28;20465;-62
2022/09/04 02:56:57;;;;;;;2.77;1.67;;;14.50;99.90;;;;;;5013835;28;20925;-64
2022/09/04 02:59:35;;;;;;;2.70;1.67;;;14.50;99.90;;;;;;5012977;28;20488;-63
2022/09/04 03:02:05;;;;;;;6.23;1.80;;;14.50;99.90;;;;;;5012662;28;20457;-63
2022/09/04 03:04:39;;;;;;;3.40;1.77;;;14.50;99.90;;;;;;5029588;28;20563;-63
2022/09/04 03:07:13;;;;;;;2.70;1.63;;;14.60;99.90;;;;;;5035238;28;20517;-62
2022/09/04 03:09:45;;;;;;;2.47;1.70;;;14.60;99.90;;;;;;5021656;28;20467;-62
2022/09/04 03:12:25;;;;;;;3.73;2.60;;;14.60;99.90;;;;;;5014666;28;20482;-63
2022/09/04 03:15:00;;;;;;;3.70;2.83;;;14.60;99.90;;;;;;5027132;28;20453;-63
2022/09/04 03:17:34;;;;;;;4.70;2.93;;;14.60;99.90;;;;;;5035080;28;20481;-62
2022/09/04 03:20:06;;;;;;;6.03;3.53;;;14.60;99.80;;;;;;5019945;28;20481;-63
2022/09/04 03:22:43;;;;;;;4.77;2.70;;;14.50;99.30;;;;;;5015275;28;20497;-63
2022/09/04 03:25:35;;;;;;;5.13;3.53;;;14.50;99.30;;;;;;5029022;28;20442;-63
2022/09/04 03:28:02;;;;;;;5.30;2.40;;;14.50;99.30;;;;;;5035094;28;20516;-63
2022/09/04 03:30:35;;;;;;;5.93;2.60;;;14.40;99.20;;;;;;5016014;28;20470;-63
2022/09/04 03:33:11;;;;;;;3.70;2.37;;;14.30;99.40;;;;;;5014688;28;20529;-63
2022/09/04 03:35:49;;;;;;;3.40;2.30;;;14.30;99.60;;;;;;5029279;28;20466;-63
2022/09/04 03:38:24;;;;;;;4.33;2.93;;;14.30;99.90;;;;;;5017624;28;20498;-63
2022/09/04 03:41:04;;;;;;;3.60;2.90;;;14.30;99.90;;;;;;5015388;28;20474;-63
2022/09/04 03:43:47;;;;;;;3.23;2.43;;;14.30;99.90;;;;;;5015067;28;20445;-62
2022/09/04 03:46:26;;;;;;;4.30;2.90;;;14.20;99.90;;;;;;5014804;28;20522;-63
2022/09/04 03:49:10;;;;;;;4.30;3.60;;;14.20;99.90;;;;;;5013161;28;20526;-63
2022/09/04 03:51:47;;;;;;;4.73;3.40;;;14.10;99.90;;;;;;5014613;28;20529;-62
2022/09/04 03:54:29;;;;;;;4.60;2.80;;;14.10;99.90;;;;;;5013256;28;20485;-62
2022/09/04 03:57:48;;;;;;;4.57;2.70;;;14.20;99.90;;;;;;5014114;28;20497;-63
2022/09/04 04:00:18;;;;;;;5.63;3.00;;;14.10;99.90;;;;;;4991375;28;20535;-63
2022/09/04 04:03:06;;;;;;;3.63;2.17;;;14.10;99.90;;;;;;5014622;28;20530;-64
2022/09/04 04:05:53;;;;;;;2.97;2.40;;;14.10;99.90;;;;;;5010825;28;20482;-62
2022/09/04 04:08:44;;;;;;;3.90;2.53;;;14.10;99.90;;;;;;5014156;28;20529;-63
2022/09/04 04:11:24;;;;;;;2.80;2.20;;;14.00;99.90;;;;;;5012136;28;20489;-62
2022/09/04 04:14:15;;;;;;;3.93;1.97;;;14.00;99.90;;;;;;5014412;28;20478;-63
2022/09/04 04:16:51;;;;;;;4.00;1.90;;;14.00;99.90;;;;;;5014110;28;20446;-62
2022/09/04 04:19:41;;;;;;;3.70;2.07;;;14.00;99.90;;;;;;5014582;28;20849;-63
2022/09/04 04:22:34;;;;;;;3.13;1.90;;;14.00;99.90;;;;;;5028706;28;20489;-62
2022/09/04 04:25:15;;;;;;;4.00;1.70;;;14.00;99.90;;;;;;5025867;28;20527;-64
2022/09/04 04:28:02;;;;;;;2.50;1.40;;;14.00;99.90;;;;;;5014214;28;20482;-62
2022/09/04 04:30:38;;;;;;;2.30;1.33;;;14.00;99.90;;;;;;5023165;28;20461;-63
2022/09/04 04:33:19;;;;;;;2.37;1.33;;;13.90;99.80;;;;;;5033897;28;20516;-63
2022/09/04 04:35:54;;;;;;;3.80;1.00;;;13.90;99.80;;;;;;5018586;28;20434;-63
2022/09/04 04:38:39;;;;;;;3.13;1.43;;;13.80;99.40;;;;;;5013668;28;20465;-63
2022/09/04 04:41:28;;;;;;;3.20;1.57;;;13.70;99.10;;;;;;5026514;28;20434;-63
2022/09/04 04:44:10;;;;;;;2.00;1.13;;;13.60;98.80;;;;;;5033239;28;20422;-62
2022/09/04 04:46:50;;;;;;;2.10;1.40;;;13.50;98.70;;;;;;5014272;28;20443;-62
2022/09/04 04:49:55;;;;;;;2.63;1.47;;;13.40;99.00;;;;;;5013529;28;20486;-63
2022/09/04 04:52:32;;;;;;;3.10;1.60;;;13.50;99.50;;;;;;5002196;28;20478;-62
2022/09/04 04:55:16;;;;;;;2.17;1.20;;;13.40;99.90;;;;;;5012196;28;20450;-63
2022/09/04 04:57:55;;;;;;;5.90;2.30;;;13.40;99.90;;;;;;5013521;28;20434;-62
2022/09/04 05:00:27;;;;;;;3.50;2.43;;;13.40;99.90;;;;;;5011686;28;20510;-64
2022/09/04 05:03:06;;;;;;;3.97;3.07;;;13.40;99.90;;;;;;5013285;28;20458;-63
2022/09/04 05:05:59;;;;;;;3.90;2.73;;;13.50;99.90;;;;;;5011233;28;20493;-62
2022/09/04 05:08:36;;;;;;;5.20;3.03;;;13.60;99.90;;;;;;5013374;28;20525;-63
2022/09/04 05:11:13;;;;;;;3.17;2.40;;;13.70;99.90;;;;;;5011644;28;20482;-62
2022/09/04 05:13:53;;;;;;;6.40;2.30;;;13.70;99.90;;;;;;5013314;28;20442;-62
2022/09/04 05:16:26;;;;;;;5.13;2.53;;;13.80;99.90;;;;;;5011434;28;20426;-63
2022/09/04 05:18:58;;;;;;;2.97;1.97;;;13.80;99.90;;;;;;5013097;28;20914;-63
2022/09/04 05:21:34;;;;;;;3.07;2.27;;;13.80;99.90;;;;;;5012202;28;20526;-62
2022/09/04 05:24:08;;;;;;;4.03;2.90;;;13.90;99.90;;;;;;5013475;28;20517;-62
2022/09/04 05:26:45;;;;;;;4.23;2.93;;;14.00;99.90;;;;;;5011323;28;20470;-63
2022/09/04 05:29:21;;;;;;;4.60;3.53;;;14.00;99.90;;;;;;5013271;28;20576;-63
2022/09/04 05:31:54;;;;;;;4.50;2.87;;;14.00;99.90;;;;;;5031288;28;20481;-63
2022/09/04 05:34:32;;;;;;;3.53;2.83;;;14.00;99.90;;;;;;5032747;28;20491;-64
2022/09/04 05:37:08;;;;;;;8.50;2.50;;;14.00;99.90;;;;;;5014040;28;20435;-62
2022/09/04 05:39:46;;;;;;;4.30;2.20;;;14.10;99.90;;;;;;5015881;28;20501;-63
2022/09/04 05:42:37;;;;;;;5.83;2.60;;;14.20;99.90;;;;;;5016089;28;20431;-63
2022/09/04 05:45:13;;;;;;;3.20;2.00;;;14.30;99.90;;;;;;5017457;28;21771;-64
2022/09/04 05:47:50;;;;;;;4.40;3.00;;;14.40;99.90;;;;;;5035862;28;20552;-62
2022/09/04 05:50:35;;;;;;;5.07;3.30;;;14.50;99.90;;;;;;5029942;28;20466;-63
2022/09/04 05:53:29;;;;;;;3.47;2.63;;;14.60;99.90;;;;;;5018006;28;20524;-63
2022/09/04 05:56:23;;;;;;;4.17;2.83;;;14.70;99.90;;;;;;5032739;28;20933;-62
2022/09/04 05:59:14;;;;;;;5.80;2.90;;;14.90;99.90;;;;;;5033890;28;20442;-63
2022/09/04 06:01:53;;;;;;;3.03;2.37;;;;;;;;;;5036687;28;20441;-63
2022/09/04 06:04:47;;;;;;;4.50;3.30;;;15.10;99.90;;;;;;5018951;28;20446;-63
2022/09/04 06:07:21;;;;;;;4.37;3.07;;;15.40;99.90;;;;;;5015297;28;20451;-63
2022/09/04 06:10:02;;;;;;;4.17;2.70;;;15.50;99.90;;;;;;5013842;28;20513;-64
2022/09/04 06:12:53;;;;;;;6.40;2.43;;;15.70;99.90;;;;;;5016417;28;20903;-65
2022/09/04 06:15:33;;;;;;;3.73;2.20;;;15.80;99.90;;;;;;5030918;28;20443;-65
2022/09/04 06:18:28;;;;;;;2.90;2.20;;;15.80;99.90;;;;;;5016474;28;20488;-63
2022/09/04 06:21:15;;;;;;;3.07;2.40;;;15.90;99.90;;;;;;5020265;28;20438;-63
2022/09/04 06:23:55;;;;;;;3.57;2.73;;;16.10;99.90;;;;;;5036210;28;20441;-62
2022/09/04 06:26:37;;;;;;;5.07;3.03;;;16.20;99.90;;;;;;5025231;28;20473;-63
2022/09/04 06:29:22;;;;;;;2.83;1.90;;;16.40;99.90;;;;;;5015848;28;20528;-63
2022/09/04 06:32:03;;;;;;;3.60;2.13;;;16.40;99.90;;;;;;5026844;28;20464;-63
2022/09/04 06:34:50;;;;;;;3.30;2.10;;;16.60;99.90;;;;;;5035651;28;20430;-63
2022/09/04 06:37:24;;;;;;;3.77;2.07;;;16.70;99.90;;;;;;5019439;28;20442;-63
2022/09/04 06:40:15;;;;;;;3.03;1.70;;;16.80;99.90;;;;;;5016136;28;20544;-63
2022/09/04 06:42:52;;;;;;;10.00;2.30;;;16.90;99.90;;;;;;5032892;28;20458;-63
2022/09/04 06:45:29;;;;;;;4.27;2.80;;;17.10;99.90;;;;;;5035546;28;20481;-63
2022/09/04 06:48:18;;;;;;;4.47;3.30;;;17.20;99.90;;;;;;5015035;28;20498;-63
2022/09/04 06:50:53;;;;;;;4.07;2.47;;;17.50;99.90;;;;;;5016137;28;20471;-63
2022/09/04 06:53:34;;;;;;;2.97;2.33;;;17.60;99.90;;;;;;5035685;28;20532;-64
2022/09/04 06:56:15;;;;;;;5.60;2.63;;;17.80;99.90;;;;;;5034467;28;20917;-63
2022/09/04 06:58:59;;;;;;;3.40;2.60;;;18.00;99.90;;;;;;5035728;28;20486;-63
2022/09/04 07:01:39;;;;;;;4.13;3.00;;;18.20;99.90;;;;;;5028651;28;20430;-63
2022/09/04 07:04:20;;;;;;;2.70;1.90;;;18.40;99.90;;;;;;5021810;28;20479;-64
2022/09/04 07:06:57;;;;;;;2.40;1.67;;;18.50;99.90;;;;;;5019943;28;20479;-64
2022/09/04 07:09:30;;;;;;;4.30;1.70;;;18.60;99.90;;;;;;5031451;28;20984;-64
2022/09/04 07:12:17;;;;;;;2.87;1.83;;;18.80;99.90;;;;;;5022010;28;20581;-63
2022/09/04 07:15:13;;;;;;;3.00;1.70;;;19.00;99.90;;;;;;5026978;28;20432;-63
2022/09/04 07:17:48;;;;;;;5.50;2.93;;;19.30;99.90;;;;;;5030823;28;20452;-64
2022/09/04 07:20:26;;;;;;;3.03;1.87;;;19.60;99.90;;;;;;5029615;28;20437;-65
2022/09/04 07:23:10;;;;;;;3.70;2.20;;;20.00;99.90;;;;;;5029553;28;20939;-66
2022/09/04 07:25:44;;;;;;;2.40;1.40;;;20.40;99.60;;;;;;5026468;28;20429;-64
2022/09/04 07:28:22;;;;;;;3.10;1.50;;;20.90;99.80;;;;;;5030278;28;20906;-63
2022/09/04 07:30:53;;;;;;;2.20;1.20;;;21.70;97.30;;;;;;5028419;28;20520;-64
2022/09/04 07:33:28;;;;;;;2.67;1.73;;;22.60;97.20;;;;;;5030540;28;20982;-63
2022/09/04 07:36:06;;;;;;;2.80;1.77;;;23.50;93.30;;;;;;5030377;28;20472;-64
2022/09/04 07:38:41;;;;;;;3.17;1.70;;;24.60;93.40;;;;;;5032236;28;20437;-63
2022/09/04 07:41:13;;;;;;;2.60;1.40;;;26.40;94.00;;;;;;5032740;28;20825;-64
2022/09/04 07:43:49;;;;;;;3.03;1.63;;;28.50;85.10;;;;;;5031809;28;20766;-63
2022/09/04 07:46:22;;;;;;;3.30;1.67;;;30.20;76.10;;;;;;5028244;28;20874;-65
2022/09/04 07:48:55;;;;;;;2.90;1.43;;;32.30;69.50;;;;;;5030555;28;20507;-64
2022/09/04 07:51:32;;;;;;;2.60;1.50;;;33.40;58.30;;;;;;5032104;28;20445;-64
2022/09/04 07:54:28;;;;;;;4.70;1.80;;;34.40;58.10;;;;;;5032134;28;20449;-63
2022/09/04 07:57:24;;;;;;;2.60;1.90;;;35.40;56.60;;;;;;5027795;28;20497;-63
2022/09/04 08:00:03;;;;;;;8.23;2.17;;;37.30;55.10;;;;;;5029131;28;20516;-63
2022/09/04 08:02:50;;;;;;;3.43;1.43;;;38.70;48.70;;;;;;5028421;28;20499;-64
2022/09/04 08:05:27;;;;;;;2.77;1.50;;;39.60;48.40;;;;;;5026387;28;20446;-64
2022/09/04 08:08:43;;;;;;;3.63;2.07;;;40.70;45.70;;;;;;5030619;28;20492;-66
2022/09/04 08:11:37;;;;;;;2.23;1.30;;;41.80;41.00;;;;;;5014673;28;20446;-64
2022/09/04 08:14:23;;;;;;;2.43;1.60;;;42.80;38.30;;;;;;5029615;28;20453;-64
2022/09/04 08:17:24;;;;;;;3.23;2.00;;;43.70;36.70;;;;;;5030802;28;20449;-64
2022/09/04 08:20:01;;;;;;;4.40;1.43;;;44.50;34.70;;;;;;5030650;28;21067;-68
2022/09/04 08:22:37;;;;;;;2.17;1.17;;;45.20;32.60;;;;;;5031245;28;20445;-65
2022/09/04 08:25:18;;;;;;;3.03;1.40;;;45.70;32.70;;;;;;5030955;28;20537;-64
2022/09/04 08:28:01;;;;;;;2.60;1.30;;;46.00;32.10;;;;;;5031105;28;20903;-65
2022/09/04 08:30:34;;;;;;;2.20;1.30;;;46.20;30.10;;;;;;5031646;28;20441;-65
2022/09/04 08:33:27;;;;;;;3.37;1.30;;;46.40;29.60;;;;;;5027576;28;20541;-64
2022/09/04 08:36:00;;;;;;;2.20;1.27;;;46.50;29.20;;;;;;5027656;28;20470;-64
2022/09/04 08:38:46;;;;;;;2.20;1.20;;;47.00;29.20;;;;;;5031358;28;20477;-64
2022/09/04 08:41:49;;;;;;;2.40;1.30;;;47.40;28.30;;;;;;5029482;28;20472;-65
2022/09/04 08:44:55;;;;;;;2.70;2.17;;;47.70;28.90;;;;;;5030765;28;20480;-64
2022/09/04 08:47:57;;;;;;;2.70;1.80;;;48.50;28.30;;;;;;5028496;28;20480;-65
2022/09/04 08:50:53;;;;;;;2.57;1.40;;;49.10;28.20;;;;;;5027245;28;20449;-65
2022/09/04 08:53:51;;;;;;;2.00;1.27;;;49.40;26.50;;;;;;5029826;28;20511;-65
2022/09/04 08:56:26;;;;;;;2.10;1.20;;;49.70;27.10;;;;;;5029083;28;20434;-68
2022/09/04 08:59:35;;;;;;;2.73;1.43;;;50.00;27.60;;;;;;5019379;28;20481;-66
2022/09/04 09:02:47;;;;;;;2.80;1.40;;;50.40;25.80;;;;;;5021847;28;20445;-65
2022/09/04 09:05:44;;;;;;;2.80;1.60;;;50.30;26.60;;;;;;4999395;28;20793;-65
2022/09/04 09:08:44;;;;;;;2.63;1.40;;;49.90;25.40;;;;;;5026035;28;20451;-67
2022/09/04 09:11:51;;;;;;;4.20;2.03;;;50.30;26.40;;;;;;5008179;28;21388;-64
2022/09/04 09:15:01;;;;;;;2.60;1.70;;;51.10;25.80;;;;;;5030861;28;20433;-65
2022/09/04 09:17:38;;;;;;;2.60;1.50;;;51.60;25.40;;;;;;5026601;28;20437;-65
2022/09/04 09:20:26;;;;;;;4.53;2.13;;;52.00;24.80;;;;;;5025147;28;20615;-70
2022/09/04 09:23:18;;;;;;;2.40;1.57;;;52.20;23.80;;;;;;5016601;28;20997;-70
2022/09/04 09:25:55;;;;;;;2.30;1.40;;;52.20;24.50;;;;;;5024058;28;20480;-66
2022/09/04 09:29:07;;;;;;;2.30;1.50;;;52.80;24.00;;;;;;5025969;28;20507;-65
2022/09/04 09:32:08;;;;;;;2.30;1.63;;;52.90;24.10;;;;;;5029729;28;20433;-64
2022/09/04 09:35:13;;;;;;;4.17;3.77;;;53.50;24.20;;;;;;5027826;28;20446;-66
2022/09/04 09:38:10;;;;;;;2.60;2.00;;;54.10;23.50;;;;;;5008369;28;20437;-64
2022/09/04 09:41:31;;;;;;;2.63;2.10;;;54.30;22.30;;;;;;5027105;28;20497;-63
2022/09/04 09:44:34;;;;;;;1.90;1.13;;;54.90;21.60;;;;;;4949170;29;20940;-63
2022/09/04 09:47:49;;;;;;;5.13;4.60;;;55.00;21.20;;;;;;4949031;29;20481;-64
2022/09/04 09:50:36;;;;;;;4.13;1.70;;;54.60;20.80;;;;;;5015512;28;20437;-64
2022/09/04 09:53:40;;;;;;;4.43;3.10;;;54.70;20.60;;;;;;5027310;28;20453;-64
2022/09/04 09:56:29;;;;;;;4.93;1.60;;;54.90;20.60;;;;;;5013028;28;20499;-64
2022/09/04 09:59:27;;;;;;;3.00;2.07;;;55.30;20.30;;;;;;5023589;28;20442;-68
2022/09/04 10:02:36;;;;;;;2.83;1.80;;;55.10;21.40;;;;;;5025740;28;20438;-70
2022/09/04 10:05:31;;;;;;;2.30;1.20;;;55.00;20.30;;;;;;4984949;28;20460;-65
2022/09/04 10:08:27;;;;;;;3.43;1.77;;;55.10;19.80;;;;;;5027949;28;20454;-64
2022/09/04 10:11:16;;;;;;;2.00;1.20;;;53.80;19.90;;;;;;5028556;28;20788;-64
2022/09/04 10:14:16;;;;;;;4.20;1.67;;;53.00;20.90;;;;;;5029675;28;20480;-65
2022/09/04 10:17:21;;;;;;;2.00;1.37;;;53.50;21.40;;;;;;5029455;28;20819;-64
2022/09/04 10:20:08;;;;;;;2.30;1.30;;;54.40;20.70;;;;;;5029591;28;21042;-66
2022/09/04 10:23:17;;;;;;;2.73;1.30;;;53.50;20.50;;;;;;5031757;28;20445;-64
2022/09/04 10:26:06;;;;;;;2.43;1.50;;;52.60;20.90;;;;;;5019539;28;20446;-64
2022/09/04 10:28:58;;;;;;;2.30;1.67;;;51.00;21.30;;;;;;5028709;28;20457;-64
2022/09/04 10:31:59;;;;;;;2.60;1.43;;;51.10;22.50;;;;;;5027598;28;20441;-63
2022/09/04 10:34:49;;;;;;;2.77;1.30;;;51.60;22.50;;;;;;5001694;28;20937;-64
2022/09/04 10:37:33;;;;;;;2.10;1.53;;;49.70;23.20;;;;;;5017870;28;20464;-64
2022/09/04 10:43:29;;;;;;;2.50;1.70;;;52.20;22.40;;;;;;5032226;28;20941;-63
2022/09/04 10:46:07;;;;;;;2.50;1.37;;;53.40;21.30;;;;;;5027173;28;21018;-64
2022/09/04 10:49:09;;;;;;;2.93;1.53;;;53.70;21.10;;;;;;5032165;28;20475;-63
2022/09/04 10:52:11;;;;;;;2.27;1.30;;;51.40;22.30;;;;;;5036219;28;20450;-63
2022/09/04 10:55:10;;;;;;;2.97;1.30;;;50.80;23.00;;;;;;5031262;28;20441;-63
2022/09/04 10:58:09;;;;;;;2.80;1.63;;;50.00;23.10;;;;;;5034961;28;20960;-64
2022/09/04 11:00:48;;;;;;;2.20;1.43;;;47.20;25.10;;;;;;5030085;28;20489;-63
2022/09/04 11:03:36;;;;;;;3.63;2.00;;;46.30;25.00;;;;;;5037257;28;20445;-64
2022/09/04 11:06:39;;;;;;;2.30;1.20;;;47.30;26.40;;;;;;5037336;28;20449;-63
2022/09/04 11:09:42;;;;;;;1.87;1.10;;;49.80;25.10;;;;;;5032806;28;20440;-64
2022/09/04 11:12:42;;;;;;;2.77;1.70;;;50.60;24.10;;;;;;5036179;28;20471;-63
2022/09/04 11:15:33;;;;;;;3.57;1.47;;;49.70;22.80;;;;;;5001352;28;20449;-63
2022/09/04 11:18:27;;;;;;;3.60;1.27;;;49.60;22.10;;;;;;5035218;28;20434;-65
2022/09/04 11:21:39;;;;;;;2.47;1.27;;;50.20;21.30;;;;;;5036389;28;20491;-64
2022/09/04 11:24:52;;;;;;;2.80;1.33;;;49.90;20.60;;;;;;5036476;28;20437;-64
2022/09/04 11:27:57;;;;;;;2.63;1.40;;;49.20;21.60;;;;;;5030517;28;20442;-64
2022/09/04 11:30:37;;;;;;;2.80;1.37;;;48.70;21.20;;;;;;5022094;28;20464;-65
2022/09/04 11:33:29;;;;;;;3.60;1.50;;;;;;;;;;5027983;28;20449;-64
2022/09/04 11:36:22;;;;;;;5.53;5.03;;;48.10;21.70;;;;;;5033699;28;20446;-63
2022/09/04 11:39:25;;;;;;;2.30;1.27;;;45.60;23.90;;;;;;5028494;28;20485;-64
2022/09/04 11:42:28;;;;;;;2.97;1.60;;;44.60;24.20;;;;;;5014874;28;20430;-63
2022/09/04 11:45:19;;;;;;;2.60;2.00;;;43.60;25.20;;;;;;5035202;28;20468;-65
2022/09/04 11:48:23;;;;;;;2.50;1.37;;;43.30;26.20;;;;;;5022964;28;21710;-64
2022/09/04 11:51:29;;;;;;;2.40;1.40;;;43.30;26.20;;;;;;5031062;28;20425;-63
2022/09/04 11:54:28;;;;;;;3.83;1.63;;;42.60;27.70;;;;;;5027259;28;20464;-64
2022/09/04 11:57:07;;;;;;;2.80;1.33;;;42.30;29.00;;;;;;5033918;28;20511;-65
2022/09/04 12:00:05;;;;;;;2.30;1.40;;;42.20;28.10;;;;;;5033568;28;20892;-63
2022/09/04 12:02:58;;;;;;;3.90;2.03;;;42.20;27.30;;;;;;5025126;28;20450;-68
2022/09/04 12:05:45;;;;;;;2.10;1.20;;;41.60;28.70;;;;;;5027037;28;20528;-63
2022/09/04 12:08:48;;;;;;;2.93;1.43;;;41.30;28.80;;;;;;5029484;28;20549;-63
2022/09/04 12:11:41;;;;;;;2.73;1.20;;;40.90;29.30;;;;;;5022385;28;20441;-65
2022/09/04 12:14:18;;;;;;;3.83;2.30;;;40.50;28.90;;;;;;5024155;28;20473;-64
2022/09/04 12:17:30;;;;;;;2.90;1.30;;;40.00;29.60;;;;;;5028994;28;20457;-65
2022/09/04 12:20:34;;;;;;;3.17;1.27;;;39.80;29.20;;;;;;5017141;28;20566;-65
2022/09/04 12:23:31;;;;;;;2.20;1.20;;;39.40;29.50;;;;;;5030766;28;20444;-64
2022/09/04 12:26:28;;;;;;;2.40;1.77;;;38.90;29.80;;;;;;5008827;28;20432;-64
2022/09/04 12:29:44;;;;;;;2.57;1.57;;;38.50;32.20;;;;;;5029874;28;20481;-63
2022/09/04 12:32:44;;;;;;;3.23;1.70;;;38.10;32.20;;;;;;5007876;28;20483;-67
2022/09/04 12:35:42;;;;;;;4.57;1.50;;;37.70;32.80;;;;;;5031756;28;20432;-63
2022/09/04 12:38:37;;;;;;;4.10;2.00;;;37.10;32.70;;;;;;5030966;28;20464;-64
2022/09/04 12:41:11;;;;;;;2.97;1.30;;;36.80;33.20;;;;;;5038171;28;20851;-64
2022/09/04 12:43:54;;;;;;;2.70;1.30;;;36.50;33.90;;;;;;5034990;28;20433;-63
2022/09/04 12:46:40;;;;;;;2.60;1.20;;;36.00;34.70;;;;;;5032555;28;20512;-63
2022/09/04 12:49:38;;;;;;;2.30;1.40;;;35.50;37.00;;;;;;5029166;28;20457;-63
2022/09/04 12:52:09;;;;;;;3.13;1.47;;;35.10;38.00;;;;;;5033651;28;20543;-64
2022/09/04 12:54:43;;;;;;;2.10;1.30;;;34.80;38.80;;;;;;5031237;28;20524;-63
2022/09/04 12:57:29;;;;;;;3.17;1.30;;;34.70;38.60;;;;;;5031177;28;20478;-63
2022/09/04 13:00:09;;;;;;;2.47;1.20;;;34.40;39.30;;;;;;5036228;28;20509;-63
2022/09/04 13:02:56;;;;;;;2.37;1.50;;;34.20;39.80;;;;;;5033582;28;20461;-64
2022/09/04 13:05:51;;;;;;;4.10;1.70;;;34.00;40.40;;;;;;5032949;28;20957;-63
2022/09/04 13:08:31;;;;;;;2.20;1.27;;;33.80;39.00;;;;;;5030523;28;20466;-64
2022/09/04 13:11:13;;;;;;;4.40;1.40;;;33.50;39.00;;;;;;5030508;28;20508;-63
2022/09/04 13:13:53;;;;;;;6.00;1.27;;;33.20;40.20;;;;;;5028815;28;20451;-65
2022/09/04 13:16:30;;;;;;;2.30;1.53;;;33.00;40.10;;;;;;5032229;28;20487;-63
2022/09/04 13:19:10;;;;;;;3.47;1.30;;;32.90;40.00;;;;;;5030250;28;20444;-64
2022/09/04 13:22:10;;;;;;;2.83;1.30;;;32.70;40.60;;;;;;5030008;28;20466;-64
2022/09/04 13:24:50;;;;;;;2.20;1.10;;;32.50;40.10;;;;;;5031191;28;20981;-63
2022/09/04 13:27:31;;;;;;;14.00;3.93;;;32.20;40.60;;;;;;5036425;28;20454;-64
2022/09/04 13:30:07;;;;;;;3.00;1.77;;;32.00;41.00;;;;;;5030200;28;20469;-68
2022/09/04 13:32:55;;;;;;;2.77;1.50;;;31.80;42.10;;;;;;5032434;28;20453;-65
2022/09/04 13:35:43;;;;;;;2.00;1.07;;;31.60;42.30;;;;;;5030059;28;20530;-63
2022/09/04 13:38:36;;;;;;;3.90;1.50;;;31.50;41.60;;;;;;5032723;28;20558;-63
2022/09/04 13:41:30;;;;;;;2.90;1.50;;;31.30;42.20;;;;;;5026334;28;20481;-63
2022/09/04 13:44:19;;;;;;;3.17;1.60;;;31.10;42.20;;;;;;5031470;28;20936;-63
2022/09/04 13:46:53;;;;;;;2.73;1.87;;;30.90;42.50;;;;;;5028955;28;20527;-64
2022/09/04 13:49:27;;;;;;;4.20;1.90;;;30.90;41.20;;;;;;5030243;28;20484;-63
2022/09/04 13:52:01;;;;;;;6.20;5.50;;;30.80;41.60;;;;;;5024874;28;21029;-64
2022/09/04 13:54:34;;;;;;;4.23;2.77;;;30.70;41.40;;;;;;5032339;28;20955;-64
2022/09/04 13:57:16;;;;;;;2.47;1.47;;;30.70;41.00;;;;;;5025360;28;20901;-63
2022/09/04 13:59:46;;;;;;;2.37;1.50;;;30.60;41.50;;;;;;5034619;28;20517;-63
2022/09/04 14:02:24;;;;;;;2.80;1.50;;;30.50;41.10;;;;;;5037501;28;20445;-63
2022/09/04 14:05:01;;;;;;;2.67;1.20;;;30.40;41.10;;;;;;5015182;28;20537;-65
2022/09/04 14:07:46;;;;;;;3.00;1.30;;;30.20;40.50;;;;;;5032739;28;20804;-63
2022/09/04 14:10:30;;;;;;;2.90;1.00;;;30.10;41.40;;;;;;5035949;28;20454;-63
2022/09/04 14:13:27;;;;;;;2.47;1.63;;;29.90;41.10;;;;;;5033877;28;20441;-63
2022/09/04 14:19:19;;;;;;;3.77;2.47;;;29.80;42.90;;;;;;5026731;28;20433;-66
2022/09/04 14:22:13;;;;;;;2.97;1.80;;;29.70;43.00;;;;;;5030853;28;20477;-63
2022/09/04 14:24:50;;;;;;;2.80;1.77;;;29.70;43.00;;;;;;5031954;28;20923;-63